MYGF

Grand Bahama International Airport

Freeport, , Bahamas
MYGF 231630Z 2318/2418 13010KT 9999 SHRA FEW015CB SCT016 BKN200 PROB30 TEMPO 2406/2417 VRB15KT 4800 TSRA SCT015CB BKN030
Issued Valid From Valid To
Apr-23 @ 16:30 UTC
(6 hours ago)
Apr-23 @ 18:00 UTC
(5 hours ago)
Apr-24 @ 18:00 UTC
(in 19 hours)
Apr-23 @ 18:00 to Apr-24 @ 18:00
MYGF 231630Z 2318/2418 13010KT 9999 SHRA FEW015CB SCT016 BKN200
Wind Visibility Clouds Conditions
130° at 10 knots 10,000+ meters
  • Few at 1,500' AGL
  • Scattered at 1,600' AGL
  • Broken at 20,000' AGL
  • Rain
Temporary  (Probability 30%) Apr-24 @ 06:00 to Apr-24 @ 17:00
PROB30 TEMPO 2406/2417 VRB15KT 4800 TSRA SCT015CB BKN030
Wind Visibility Clouds Conditions
Variable at 15 knots 4,796 meters
  • Scattered at 1,500' AGL
  • Broken at 3,000' AGL
  • Thunderstorm
  • Rain
MYGF 231630Z 2318/2418 13010KT 9999 SHRA FEW015CB SCT016 BKN200 PROB30 TEMPO 2406/2417 VRB15KT 4800 TSRA SCT015CB BKN030
Issued Apr-23 @ 16:30 UTC
(6 hours ago)
Valid From Apr-23 @ 18:00 UTC
(5 hours ago)
Valid To Apr-24 @ 18:00 UTC
(in 19 hours)
Apr-23 @ 18:00 - Apr-24 @ 18:00
Wind Visibility
130° at 10 knots 10,000+ meters
Clouds
  • Few at 1,500' AGL
  • Scattered at 1,600' AGL
  • Broken at 20,000' AGL
Conditions
  • Rain
Probability 30% Temporary Apr-24 @ 06:00 - Apr-24 @ 17:00
Wind Visibility
Variable at 15 knots 4,796 meters
Clouds
  • Scattered at 1,500' AGL
  • Broken at 3,000' AGL
Conditions
  • Thunderstorm
  • Rain